sensor_id;sensor_type;location;lat;lon;timestamp;P1;durP1;ratioP1;P2;durP2;ratioP2
39524;SDS011;25203;50.754;6.978;2022-07-06T00:01:04;3.50;;;1.65;;
39524;SDS011;25203;50.754;6.978;2022-07-06T00:03:05;4.95;;;2.03;;
39524;SDS011;25203;50.754;6.978;2022-07-06T00:05:06;5.43;;;1.60;;
39524;SDS011;25203;50.754;6.978;2022-07-06T00:07:07;5.82;;;1.50;;
39524;SDS011;25203;50.754;6.978;2022-07-06T00:09:07;4.47;;;1.75;;
39524;SDS011;25203;50.754;6.978;2022-07-06T00:11:08;2.83;;;1.58;;
39524;SDS011;25203;50.754;6.978;2022-07-06T00:13:09;3.17;;;1.52;;
39524;SDS011;25203;50.754;6.978;2022-07-06T00:15:10;4.53;;;1.60;;
39524;SDS011;25203;50.754;6.978;2022-07-06T00:17:10;2.00;;;1.20;;
39524;SDS011;25203;50.754;6.978;2022-07-06T00:19:11;5.35;;;1.65;;
39524;SDS011;25203;50.754;6.978;2022-07-06T00:21:11;2.75;;;1.33;;
39524;SDS011;25203;50.754;6.978;2022-07-06T00:23:12;3.45;;;1.70;;
39524;SDS011;25203;50.754;6.978;2022-07-06T00:25:13;2.65;;;1.40;;
39524;SDS011;25203;50.754;6.978;2022-07-06T00:27:13;5.45;;;1.50;;
39524;SDS011;25203;50.754;6.978;2022-07-06T00:29:14;4.50;;;1.70;;
39524;SDS011;25203;50.754;6.978;2022-07-06T00:31:15;3.17;;;1.58;;
39524;SDS011;25203;50.754;6.978;2022-07-06T00:33:15;4.65;;;1.50;;
39524;SDS011;25203;50.754;6.978;2022-07-06T00:35:16;1.35;;;1.25;;
39524;SDS011;25203;50.754;6.978;2022-07-06T00:37:16;3.70;;;1.80;;
39524;SDS011;25203;50.754;6.978;2022-07-06T00:39:17;3.35;;;1.40;;
39524;SDS011;25203;50.754;6.978;2022-07-06T00:41:19;3.38;;;1.20;;
39524;SDS011;25203;50.754;6.978;2022-07-06T00:43:20;4.70;;;2.08;;
39524;SDS011;25203;50.754;6.978;2022-07-06T00:45:20;4.80;;;1.70;;
39524;SDS011;25203;50.754;6.978;2022-07-06T00:47:21;8.38;;;1.42;;
39524;SDS011;25203;50.754;6.978;2022-07-06T00:49:21;5.22;;;1.73;;
39524;SDS011;25203;50.754;6.978;2022-07-06T00:51:41;4.28;;;1.45;;
39524;SDS011;25203;50.754;6.978;2022-07-06T00:53:42;2.70;;;1.48;;
39524;SDS011;25203;50.754;6.978;2022-07-06T00:55:42;5.15;;;1.67;;
39524;SDS011;25203;50.754;6.978;2022-07-06T00:57:43;3.78;;;1.83;;
39524;SDS011;25203;50.754;6.978;2022-07-06T00:59:44;2.65;;;1.60;;
39524;SDS011;25203;50.754;6.978;2022-07-06T01:01:45;5.38;;;2.05;;
39524;SDS011;25203;50.754;6.978;2022-07-06T01:03:45;3.30;;;1.70;;
39524;SDS011;25203;50.754;6.978;2022-07-06T01:05:46;5.15;;;2.00;;
39524;SDS011;25203;50.754;6.978;2022-07-06T01:07:47;2.58;;;1.63;;
39524;SDS011;25203;50.754;6.978;2022-07-06T01:09:49;3.47;;;1.65;;
39524;SDS011;25203;50.754;6.978;2022-07-06T01:11:49;4.72;;;1.90;;
39524;SDS011;25203;50.754;6.978;2022-07-06T01:13:51;7.05;;;1.73;;
39524;SDS011;25203;50.754;6.978;2022-07-06T01:15:52;2.35;;;1.58;;
39524;SDS011;25203;50.754;6.978;2022-07-06T01:17:53;2.20;;;1.33;;
39524;SDS011;25203;50.754;6.978;2022-07-06T01:19:55;2.75;;;1.50;;
39524;SDS011;25203;50.754;6.978;2022-07-06T01:21:56;2.92;;;1.50;;
39524;SDS011;25203;50.754;6.978;2022-07-06T01:23:56;4.28;;;2.05;;
39524;SDS011;25203;50.754;6.978;2022-07-06T01:25:57;3.58;;;1.77;;
39524;SDS011;25203;50.754;6.978;2022-07-06T01:27:58;5.78;;;2.30;;
39524;SDS011;25203;50.754;6.978;2022-07-06T01:29:58;2.95;;;1.73;;
39524;SDS011;25203;50.754;6.978;2022-07-06T01:31:59;4.13;;;2.00;;
39524;SDS011;25203;50.754;6.978;2022-07-06T01:34:01;2.85;;;1.80;;
39524;SDS011;25203;50.754;6.978;2022-07-06T01:36:01;3.05;;;1.98;;
39524;SDS011;25203;50.754;6.978;2022-07-06T01:38:02;5.20;;;2.17;;
39524;SDS011;25203;50.754;6.978;2022-07-06T01:40:04;7.15;;;2.20;;
39524;SDS011;25203;50.754;6.978;2022-07-06T01:42:06;5.93;;;2.00;;
39524;SDS011;25203;50.754;6.978;2022-07-06T01:44:07;6.45;;;2.50;;
39524;SDS011;25203;50.754;6.978;2022-07-06T01:46:08;8.45;;;2.60;;
39524;SDS011;25203;50.754;6.978;2022-07-06T01:48:09;5.75;;;2.17;;
39524;SDS011;25203;50.754;6.978;2022-07-06T01:50:09;3.22;;;2.00;;
39524;SDS011;25203;50.754;6.978;2022-07-06T01:52:10;5.15;;;2.38;;
39524;SDS011;25203;50.754;6.978;2022-07-06T01:54:10;4.13;;;2.65;;
39524;SDS011;25203;50.754;6.978;2022-07-06T01:56:11;4.28;;;2.40;;
39524;SDS011;25203;50.754;6.978;2022-07-06T01:58:12;3.70;;;2.03;;
39524;SDS011;25203;50.754;6.978;2022-07-06T02:00:13;3.08;;;2.13;;
39524;SDS011;25203;50.754;6.978;2022-07-06T02:02:14;3.58;;;2.42;;
39524;SDS011;25203;50.754;6.978;2022-07-06T02:04:15;7.30;;;2.60;;
39524;SDS011;25203;50.754;6.978;2022-07-06T02:06:16;3.80;;;2.55;;
39524;SDS011;25203;50.754;6.978;2022-07-06T02:08:16;6.15;;;2.45;;
39524;SDS011;25203;50.754;6.978;2022-07-06T02:10:17;5.72;;;2.20;;
39524;SDS011;25203;50.754;6.978;2022-07-06T02:12:17;5.80;;;2.42;;
39524;SDS011;25203;50.754;6.978;2022-07-06T02:14:18;5.60;;;2.83;;
39524;SDS011;25203;50.754;6.978;2022-07-06T02:16:19;3.80;;;2.47;;
39524;SDS011;25203;50.754;6.978;2022-07-06T02:18:19;4.03;;;2.42;;
39524;SDS011;25203;50.754;6.978;2022-07-06T02:20:20;4.03;;;2.55;;
39524;SDS011;25203;50.754;6.978;2022-07-06T02:22:21;7.60;;;2.65;;
39524;SDS011;25203;50.754;6.978;2022-07-06T02:24:21;4.38;;;2.72;;
39524;SDS011;25203;50.754;6.978;2022-07-06T02:26:22;4.93;;;2.47;;
39524;SDS011;25203;50.754;6.978;2022-07-06T02:28:23;8.25;;;2.95;;
39524;SDS011;25203;50.754;6.978;2022-07-06T02:30:23;4.70;;;2.47;;
39524;SDS011;25203;50.754;6.978;2022-07-06T02:32:24;4.75;;;2.78;;
39524;SDS011;25203;50.754;6.978;2022-07-06T02:34:25;3.70;;;2.90;;
39524;SDS011;25203;50.754;6.978;2022-07-06T02:36:26;6.93;;;3.90;;
39524;SDS011;25203;50.754;6.978;2022-07-06T02:38:26;9.98;;;2.80;;
39524;SDS011;25203;50.754;6.978;2022-07-06T02:40:27;4.30;;;3.00;;
39524;SDS011;25203;50.754;6.978;2022-07-06T02:42:27;5.88;;;2.45;;
39524;SDS011;25203;50.754;6.978;2022-07-06T02:44:28;6.93;;;2.47;;
39524;SDS011;25203;50.754;6.978;2022-07-06T02:46:29;5.93;;;2.78;;
39524;SDS011;25203;50.754;6.978;2022-07-06T02:48:32;3.10;;;2.80;;
39524;SDS011;25203;50.754;6.978;2022-07-06T02:50:33;4.60;;;2.80;;
39524;SDS011;25203;50.754;6.978;2022-07-06T02:52:33;4.13;;;2.83;;
39524;SDS011;25203;50.754;6.978;2022-07-06T02:54:34;10.27;;;3.80;;
39524;SDS011;25203;50.754;6.978;2022-07-06T02:56:35;5.45;;;2.42;;
39524;SDS011;25203;50.754;6.978;2022-07-06T02:58:35;3.28;;;2.80;;
39524;SDS011;25203;50.754;6.978;2022-07-06T03:00:36;4.07;;;2.70;;
39524;SDS011;25203;50.754;6.978;2022-07-06T03:02:37;5.70;;;2.58;;
39524;SDS011;25203;50.754;6.978;2022-07-06T03:04:37;3.58;;;2.50;;
39524;SDS011;25203;50.754;6.978;2022-07-06T03:06:38;4.18;;;2.58;;
39524;SDS011;25203;50.754;6.978;2022-07-06T03:08:38;6.00;;;2.60;;
39524;SDS011;25203;50.754;6.978;2022-07-06T03:10:39;4.50;;;3.03;;
39524;SDS011;25203;50.754;6.978;2022-07-06T03:12:39;3.60;;;2.63;;
39524;SDS011;25203;50.754;6.978;2022-07-06T03:14:40;4.80;;;3.17;;
39524;SDS011;25203;50.754;6.978;2022-07-06T03:16:41;2.78;;;2.22;;
39524;SDS011;25203;50.754;6.978;2022-07-06T03:18:41;4.63;;;2.75;;
39524;SDS011;25203;50.754;6.978;2022-07-06T03:20:42;4.20;;;2.60;;
39524;SDS011;25203;50.754;6.978;2022-07-06T03:22:42;4.82;;;2.92;;
39524;SDS011;25203;50.754;6.978;2022-07-06T03:24:43;4.63;;;2.72;;
39524;SDS011;25203;50.754;6.978;2022-07-06T03:26:44;7.65;;;2.95;;
39524;SDS011;25203;50.754;6.978;2022-07-06T03:28:45;3.78;;;3.05;;
39524;SDS011;25203;50.754;6.978;2022-07-06T03:30:45;7.80;;;3.30;;
39524;SDS011;25203;50.754;6.978;2022-07-06T03:32:46;5.68;;;3.50;;
39524;SDS011;25203;50.754;6.978;2022-07-06T03:34:46;7.68;;;3.35;;
39524;SDS011;25203;50.754;6.978;2022-07-06T03:36:47;10.90;;;3.60;;
39524;SDS011;25203;50.754;6.978;2022-07-06T03:38:48;8.63;;;2.95;;
39524;SDS011;25203;50.754;6.978;2022-07-06T03:40:48;4.75;;;3.33;;
39524;SDS011;25203;50.754;6.978;2022-07-06T03:42:49;4.60;;;2.92;;
39524;SDS011;25203;50.754;6.978;2022-07-06T03:44:50;4.15;;;2.90;;
39524;SDS011;25203;50.754;6.978;2022-07-06T03:46:50;4.10;;;3.10;;
39524;SDS011;25203;50.754;6.978;2022-07-06T03:48:52;5.32;;;2.88;;
39524;SDS011;25203;50.754;6.978;2022-07-06T03:50:54;3.65;;;3.05;;
39524;SDS011;25203;50.754;6.978;2022-07-06T03:52:54;4.65;;;3.28;;
39524;SDS011;25203;50.754;6.978;2022-07-06T03:54:55;5.63;;;2.95;;
39524;SDS011;25203;50.754;6.978;2022-07-06T03:56:56;5.85;;;4.05;;
39524;SDS011;25203;50.754;6.978;2022-07-06T03:58:57;8.25;;;3.42;;
39524;SDS011;25203;50.754;6.978;2022-07-06T04:01:02;7.20;;;3.60;;
39524;SDS011;25203;50.754;6.978;2022-07-06T04:03:02;8.43;;;3.72;;
39524;SDS011;25203;50.754;6.978;2022-07-06T04:05:03;6.63;;;3.90;;
39524;SDS011;25203;50.754;6.978;2022-07-06T04:07:04;6.18;;;2.95;;
39524;SDS011;25203;50.754;6.978;2022-07-06T04:09:05;8.05;;;3.40;;
39524;SDS011;25203;50.754;6.978;2022-07-06T04:11:05;6.30;;;3.80;;
39524;SDS011;25203;50.754;6.978;2022-07-06T04:13:06;5.85;;;4.20;;
39524;SDS011;25203;50.754;6.978;2022-07-06T04:15:07;4.90;;;3.72;;
39524;SDS011;25203;50.754;6.978;2022-07-06T04:17:07;5.20;;;3.47;;
39524;SDS011;25203;50.754;6.978;2022-07-06T04:19:27;7.28;;;3.40;;
39524;SDS011;25203;50.754;6.978;2022-07-06T04:21:27;4.93;;;3.33;;
39524;SDS011;25203;50.754;6.978;2022-07-06T04:23:28;9.73;;;3.55;;
39524;SDS011;25203;50.754;6.978;2022-07-06T04:25:28;5.10;;;3.75;;
39524;SDS011;25203;50.754;6.978;2022-07-06T04:27:29;6.47;;;3.70;;
39524;SDS011;25203;50.754;6.978;2022-07-06T04:29:30;7.10;;;3.20;;
39524;SDS011;25203;50.754;6.978;2022-07-06T04:31:30;5.10;;;3.15;;
39524;SDS011;25203;50.754;6.978;2022-07-06T04:33:31;6.47;;;3.47;;
39524;SDS011;25203;50.754;6.978;2022-07-06T04:35:32;9.27;;;3.80;;
39524;SDS011;25203;50.754;6.978;2022-07-06T04:37:32;7.35;;;3.50;;
39524;SDS011;25203;50.754;6.978;2022-07-06T04:39:33;9.35;;;3.72;;
39524;SDS011;25203;50.754;6.978;2022-07-06T04:41:34;8.82;;;3.83;;
39524;SDS011;25203;50.754;6.978;2022-07-06T04:43:34;5.32;;;3.10;;
39524;SDS011;25203;50.754;6.978;2022-07-06T04:45:35;5.93;;;3.25;;
39524;SDS011;25203;50.754;6.978;2022-07-06T04:47:35;6.53;;;3.38;;
39524;SDS011;25203;50.754;6.978;2022-07-06T04:49:36;11.93;;;4.90;;
39524;SDS011;25203;50.754;6.978;2022-07-06T04:51:37;9.23;;;4.00;;
39524;SDS011;25203;50.754;6.978;2022-07-06T04:53:37;5.18;;;2.90;;
39524;SDS011;25203;50.754;6.978;2022-07-06T04:55:38;6.88;;;3.20;;
39524;SDS011;25203;50.754;6.978;2022-07-06T04:57:39;4.45;;;3.47;;
39524;SDS011;25203;50.754;6.978;2022-07-06T04:59:39;4.95;;;3.50;;
39524;SDS011;25203;50.754;6.978;2022-07-06T05:01:40;5.53;;;3.17;;
39524;SDS011;25203;50.754;6.978;2022-07-06T05:03:41;5.60;;;3.30;;
39524;SDS011;25203;50.754;6.978;2022-07-06T05:05:41;6.78;;;3.20;;
39524;SDS011;25203;50.754;6.978;2022-07-06T05:07:42;9.15;;;3.28;;
39524;SDS011;25203;50.754;6.978;2022-07-06T05:09:42;7.65;;;3.20;;
39524;SDS011;25203;50.754;6.978;2022-07-06T05:11:43;6.35;;;3.03;;
39524;SDS011;25203;50.754;6.978;2022-07-06T05:13:44;7.70;;;3.50;;
39524;SDS011;25203;50.754;6.978;2022-07-06T05:15:45;4.13;;;2.38;;
39524;SDS011;25203;50.754;6.978;2022-07-06T05:17:46;7.65;;;3.03;;
39524;SDS011;25203;50.754;6.978;2022-07-06T05:19:46;4.60;;;3.17;;
39524;SDS011;25203;50.754;6.978;2022-07-06T05:21:47;9.15;;;3.20;;
39524;SDS011;25203;50.754;6.978;2022-07-06T05:23:48;6.53;;;2.90;;
39524;SDS011;25203;50.754;6.978;2022-07-06T05:25:48;9.70;;;3.40;;
39524;SDS011;25203;50.754;6.978;2022-07-06T05:27:49;4.82;;;2.97;;
39524;SDS011;25203;50.754;6.978;2022-07-06T05:29:50;3.42;;;2.88;;
39524;SDS011;25203;50.754;6.978;2022-07-06T05:31:50;8.15;;;3.35;;
39524;SDS011;25203;50.754;6.978;2022-07-06T05:33:51;10.15;;;3.58;;
39524;SDS011;25203;50.754;6.978;2022-07-06T05:35:51;3.65;;;3.10;;
39524;SDS011;25203;50.754;6.978;2022-07-06T05:37:52;5.65;;;3.15;;
39524;SDS011;25203;50.754;6.978;2022-07-06T05:39:53;5.18;;;3.35;;
39524;SDS011;25203;50.754;6.978;2022-07-06T05:41:53;7.75;;;3.80;;
39524;SDS011;25203;50.754;6.978;2022-07-06T05:43:54;6.55;;;3.08;;
39524;SDS011;25203;50.754;6.978;2022-07-06T05:45:54;4.82;;;3.00;;
39524;SDS011;25203;50.754;6.978;2022-07-06T05:47:55;8.70;;;3.53;;
39524;SDS011;25203;50.754;6.978;2022-07-06T05:50:14;6.78;;;3.35;;
39524;SDS011;25203;50.754;6.978;2022-07-06T05:52:15;8.32;;;3.13;;
39524;SDS011;25203;50.754;6.978;2022-07-06T05:54:16;5.78;;;2.78;;
39524;SDS011;25203;50.754;6.978;2022-07-06T05:56:16;8.43;;;4.30;;
39524;SDS011;25203;50.754;6.978;2022-07-06T05:58:17;6.80;;;3.00;;
39524;SDS011;25203;50.754;6.978;2022-07-06T06:00:18;8.27;;;3.30;;
39524;SDS011;25203;50.754;6.978;2022-07-06T06:02:18;7.25;;;3.30;;
39524;SDS011;25203;50.754;6.978;2022-07-06T06:04:19;6.63;;;3.20;;
39524;SDS011;25203;50.754;6.978;2022-07-06T06:06:20;4.78;;;3.10;;
39524;SDS011;25203;50.754;6.978;2022-07-06T06:08:21;8.48;;;3.45;;
39524;SDS011;25203;50.754;6.978;2022-07-06T06:10:22;7.70;;;3.05;;
39524;SDS011;25203;50.754;6.978;2022-07-06T06:12:23;3.72;;;3.33;;
39524;SDS011;25203;50.754;6.978;2022-07-06T06:14:23;5.53;;;3.13;;
39524;SDS011;25203;50.754;6.978;2022-07-06T06:16:24;12.80;;;3.13;;
39524;SDS011;25203;50.754;6.978;2022-07-06T06:18:24;5.35;;;2.60;;
39524;SDS011;25203;50.754;6.978;2022-07-06T06:20:25;10.13;;;3.17;;
39524;SDS011;25203;50.754;6.978;2022-07-06T06:22:26;9.25;;;2.90;;
39524;SDS011;25203;50.754;6.978;2022-07-06T06:24:26;8.20;;;2.92;;
39524;SDS011;25203;50.754;6.978;2022-07-06T06:26:28;9.18;;;2.70;;
39524;SDS011;25203;50.754;6.978;2022-07-06T06:28:28;5.45;;;2.60;;
39524;SDS011;25203;50.754;6.978;2022-07-06T06:30:29;5.22;;;2.35;;
39524;SDS011;25203;50.754;6.978;2022-07-06T06:32:30;6.63;;;2.40;;
39524;SDS011;25203;50.754;6.978;2022-07-06T06:34:31;6.93;;;2.58;;
39524;SDS011;25203;50.754;6.978;2022-07-06T06:36:32;5.32;;;2.40;;
39524;SDS011;25203;50.754;6.978;2022-07-06T06:38:32;6.05;;;2.10;;
39524;SDS011;25203;50.754;6.978;2022-07-06T06:40:33;4.82;;;2.22;;
39524;SDS011;25203;50.754;6.978;2022-07-06T06:42:37;8.52;;;2.45;;
39524;SDS011;25203;50.754;6.978;2022-07-06T06:44:38;5.22;;;2.30;;
39524;SDS011;25203;50.754;6.978;2022-07-06T06:46:38;4.15;;;2.20;;
39524;SDS011;25203;50.754;6.978;2022-07-06T06:48:39;5.82;;;2.47;;
39524;SDS011;25203;50.754;6.978;2022-07-06T06:50:40;3.50;;;1.88;;
39524;SDS011;25203;50.754;6.978;2022-07-06T06:52:40;3.55;;;1.92;;
39524;SDS011;25203;50.754;6.978;2022-07-06T06:54:41;7.22;;;2.17;;
39524;SDS011;25203;50.754;6.978;2022-07-06T06:56:42;7.25;;;2.42;;
39524;SDS011;25203;50.754;6.978;2022-07-06T06:58:43;7.88;;;2.42;;
39524;SDS011;25203;50.754;6.978;2022-07-06T07:00:43;3.95;;;1.80;;
39524;SDS011;25203;50.754;6.978;2022-07-06T07:02:44;7.97;;;2.40;;
39524;SDS011;25203;50.754;6.978;2022-07-06T07:04:45;4.47;;;2.17;;
39524;SDS011;25203;50.754;6.978;2022-07-06T07:06:46;8.48;;;2.17;;
39524;SDS011;25203;50.754;6.978;2022-07-06T07:08:46;4.57;;;2.53;;
39524;SDS011;25203;50.754;6.978;2022-07-06T07:10:47;7.68;;;2.33;;
39524;SDS011;25203;50.754;6.978;2022-07-06T07:12:48;5.93;;;2.75;;
39524;SDS011;25203;50.754;6.978;2022-07-06T07:14:49;5.22;;;2.60;;
39524;SDS011;25203;50.754;6.978;2022-07-06T07:16:49;9.13;;;2.72;;
39524;SDS011;25203;50.754;6.978;2022-07-06T07:18:50;5.50;;;2.88;;
39524;SDS011;25203;50.754;6.978;2022-07-06T07:20:51;6.30;;;2.58;;
39524;SDS011;25203;50.754;6.978;2022-07-06T07:22:52;10.65;;;3.00;;
39524;SDS011;25203;50.754;6.978;2022-07-06T07:24:52;4.82;;;2.67;;
39524;SDS011;25203;50.754;6.978;2022-07-06T07:26:53;10.95;;;2.78;;
39524;SDS011;25203;50.754;6.978;2022-07-06T07:28:53;5.65;;;2.53;;
39524;SDS011;25203;50.754;6.978;2022-07-06T07:30:54;5.78;;;2.47;;
39524;SDS011;25203;50.754;6.978;2022-07-06T07:32:55;4.90;;;2.10;;
39524;SDS011;25203;50.754;6.978;2022-07-06T07:34:56;8.45;;;2.50;;
39524;SDS011;25203;50.754;6.978;2022-07-06T07:36:56;4.63;;;1.90;;
39524;SDS011;25203;50.754;6.978;2022-07-06T07:38:57;3.03;;;1.70;;
39524;SDS011;25203;50.754;6.978;2022-07-06T07:40:57;10.90;;;2.38;;
39524;SDS011;25203;50.754;6.978;2022-07-06T07:42:58;9.82;;;2.05;;
39524;SDS011;25203;50.754;6.978;2022-07-06T07:44:59;6.72;;;1.60;;
39524;SDS011;25203;50.754;6.978;2022-07-06T07:46:59;3.05;;;1.58;;
39524;SDS011;25203;50.754;6.978;2022-07-06T07:49:00;4.35;;;1.73;;
39524;SDS011;25203;50.754;6.978;2022-07-06T07:51:01;8.05;;;1.38;;
39524;SDS011;25203;50.754;6.978;2022-07-06T07:53:01;3.42;;;1.40;;
39524;SDS011;25203;50.754;6.978;2022-07-06T07:55:02;4.50;;;1.63;;
39524;SDS011;25203;50.754;6.978;2022-07-06T07:57:04;7.38;;;1.90;;
39524;SDS011;25203;50.754;6.978;2022-07-06T07:59:05;4.45;;;1.33;;
39524;SDS011;25203;50.754;6.978;2022-07-06T08:01:06;5.07;;;1.40;;
39524;SDS011;25203;50.754;6.978;2022-07-06T08:03:07;3.60;;;1.48;;
39524;SDS011;25203;50.754;6.978;2022-07-06T08:05:07;3.65;;;1.40;;
39524;SDS011;25203;50.754;6.978;2022-07-06T08:07:08;6.15;;;1.70;;
39524;SDS011;25203;50.754;6.978;2022-07-06T08:09:09;4.60;;;1.77;;
39524;SDS011;25203;50.754;6.978;2022-07-06T08:11:09;4.18;;;1.58;;
39524;SDS011;25203;50.754;6.978;2022-07-06T08:13:10;3.50;;;1.40;;
39524;SDS011;25203;50.754;6.978;2022-07-06T08:15:11;6.35;;;1.85;;
39524;SDS011;25203;50.754;6.978;2022-07-06T08:17:12;6.05;;;1.63;;
39524;SDS011;25203;50.754;6.978;2022-07-06T08:19:12;5.50;;;1.95;;
39524;SDS011;25203;50.754;6.978;2022-07-06T08:21:15;3.78;;;1.48;;
39524;SDS011;25203;50.754;6.978;2022-07-06T08:23:15;3.95;;;1.40;;
39524;SDS011;25203;50.754;6.978;2022-07-06T08:25:16;4.55;;;1.50;;
39524;SDS011;25203;50.754;6.978;2022-07-06T08:27:17;3.00;;;1.52;;
39524;SDS011;25203;50.754;6.978;2022-07-06T08:29:17;3.88;;;1.30;;
39524;SDS011;25203;50.754;6.978;2022-07-06T08:31:18;3.78;;;1.20;;
39524;SDS011;25203;50.754;6.978;2022-07-06T08:33:18;3.53;;;1.23;;
39524;SDS011;25203;50.754;6.978;2022-07-06T08:35:19;2.28;;;1.23;;
39524;SDS011;25203;50.754;6.978;2022-07-06T08:37:20;1.75;;;1.13;;
39524;SDS011;25203;50.754;6.978;2022-07-06T08:39:21;2.13;;;1.00;;
39524;SDS011;25203;50.754;6.978;2022-07-06T08:41:23;3.00;;;1.30;;
39524;SDS011;25203;50.754;6.978;2022-07-06T08:43:25;4.20;;;1.42;;
39524;SDS011;25203;50.754;6.978;2022-07-06T08:45:26;2.85;;;0.90;;
39524;SDS011;25203;50.754;6.978;2022-07-06T08:47:27;5.72;;;1.40;;
39524;SDS011;25203;50.754;6.978;2022-07-06T08:49:29;2.10;;;0.90;;
39524;SDS011;25203;50.754;6.978;2022-07-06T08:51:31;2.03;;;1.05;;
39524;SDS011;25203;50.754;6.978;2022-07-06T08:53:32;1.98;;;0.90;;
39524;SDS011;25203;50.754;6.978;2022-07-06T08:55:33;4.68;;;0.90;;
39524;SDS011;25203;50.754;6.978;2022-07-06T08:57:34;2.88;;;1.35;;
39524;SDS011;25203;50.754;6.978;2022-07-06T08:59:35;3.92;;;1.20;;
39524;SDS011;25203;50.754;6.978;2022-07-06T09:01:37;5.07;;;1.33;;
39524;SDS011;25203;50.754;6.978;2022-07-06T09:03:42;3.33;;;1.10;;
39524;SDS011;25203;50.754;6.978;2022-07-06T09:05:45;4.88;;;1.80;;
39524;SDS011;25203;50.754;6.978;2022-07-06T09:07:49;2.55;;;1.50;;
39524;SDS011;25203;50.754;6.978;2022-07-06T09:09:50;5.60;;;1.80;;
39524;SDS011;25203;50.754;6.978;2022-07-06T09:11:52;3.65;;;1.42;;
39524;SDS011;25203;50.754;6.978;2022-07-06T09:13:53;3.17;;;1.50;;
39524;SDS011;25203;50.754;6.978;2022-07-06T09:15:54;2.97;;;1.20;;
39524;SDS011;25203;50.754;6.978;2022-07-06T09:17:55;7.05;;;1.67;;
39524;SDS011;25203;50.754;6.978;2022-07-06T09:19:57;6.57;;;1.50;;
39524;SDS011;25203;50.754;6.978;2022-07-06T09:21:58;2.40;;;1.00;;
39524;SDS011;25203;50.754;6.978;2022-07-06T09:24:00;4.03;;;1.50;;
39524;SDS011;25203;50.754;6.978;2022-07-06T09:26:07;5.18;;;1.40;;
39524;SDS011;25203;50.754;6.978;2022-07-06T09:28:07;4.15;;;1.08;;
39524;SDS011;25203;50.754;6.978;2022-07-06T09:30:09;2.88;;;1.10;;
39524;SDS011;25203;50.754;6.978;2022-07-06T09:32:10;3.03;;;1.30;;
39524;SDS011;25203;50.754;6.978;2022-07-06T09:34:10;2.38;;;1.05;;
39524;SDS011;25203;50.754;6.978;2022-07-06T09:36:11;8.77;;;1.30;;
39524;SDS011;25203;50.754;6.978;2022-07-06T09:38:12;4.80;;;1.17;;
39524;SDS011;25203;50.754;6.978;2022-07-06T09:40:17;3.67;;;1.40;;
39524;SDS011;25203;50.754;6.978;2022-07-06T09:42:21;2.80;;;1.20;;
39524;SDS011;25203;50.754;6.978;2022-07-06T09:44:25;4.78;;;1.30;;
39524;SDS011;25203;50.754;6.978;2022-07-06T09:46:27;3.45;;;1.20;;
39524;SDS011;25203;50.754;6.978;2022-07-06T09:48:28;5.65;;;1.52;;
39524;SDS011;25203;50.754;6.978;2022-07-06T09:50:28;3.90;;;1.23;;
39524;SDS011;25203;50.754;6.978;2022-07-06T09:52:37;3.03;;;1.15;;
39524;SDS011;25203;50.754;6.978;2022-07-06T09:54:38;3.95;;;0.98;;
39524;SDS011;25203;50.754;6.978;2022-07-06T09:56:39;2.53;;;0.93;;
39524;SDS011;25203;50.754;6.978;2022-07-06T09:58:41;4.90;;;1.02;;
39524;SDS011;25203;50.754;6.978;2022-07-06T10:00:42;4.78;;;0.98;;
39524;SDS011;25203;50.754;6.978;2022-07-06T10:02:44;3.55;;;1.08;;
39524;SDS011;25203;50.754;6.978;2022-07-06T10:04:47;2.33;;;0.85;;
39524;SDS011;25203;50.754;6.978;2022-07-06T10:06:49;2.67;;;0.73;;
39524;SDS011;25203;50.754;6.978;2022-07-06T10:08:50;2.38;;;1.25;;
39524;SDS011;25203;50.754;6.978;2022-07-06T10:10:52;2.97;;;0.93;;
39524;SDS011;25203;50.754;6.978;2022-07-06T10:12:56;2.58;;;1.33;;
39524;SDS011;25203;50.754;6.978;2022-07-06T10:14:59;2.90;;;0.90;;
39524;SDS011;25203;50.754;6.978;2022-07-06T10:17:00;2.28;;;0.70;;
39524;SDS011;25203;50.754;6.978;2022-07-06T10:19:04;1.50;;;0.68;;
39524;SDS011;25203;50.754;6.978;2022-07-06T10:21:06;2.70;;;0.85;;
39524;SDS011;25203;50.754;6.978;2022-07-06T10:23:07;2.58;;;1.00;;
39524;SDS011;25203;50.754;6.978;2022-07-06T10:25:09;1.52;;;0.93;;
39524;SDS011;25203;50.754;6.978;2022-07-06T10:27:11;2.80;;;1.20;;
39524;SDS011;25203;50.754;6.978;2022-07-06T10:29:13;4.85;;;0.80;;
39524;SDS011;25203;50.754;6.978;2022-07-06T10:31:14;3.13;;;0.82;;
39524;SDS011;25203;50.754;6.978;2022-07-06T10:33:17;5.82;;;1.08;;
39524;SDS011;25203;50.754;6.978;2022-07-06T10:35:18;1.60;;;0.93;;
39524;SDS011;25203;50.754;6.978;2022-07-06T10:37:23;2.65;;;0.85;;
39524;SDS011;25203;50.754;6.978;2022-07-06T10:39:32;4.03;;;0.77;;
39524;SDS011;25203;50.754;6.978;2022-07-06T10:41:53;3.15;;;0.75;;
39524;SDS011;25203;50.754;6.978;2022-07-06T10:43:54;1.67;;;0.70;;
39524;SDS011;25203;50.754;6.978;2022-07-06T10:45:56;3.20;;;0.77;;
39524;SDS011;25203;50.754;6.978;2022-07-06T10:52:16;1.75;;;0.77;;
39524;SDS011;25203;50.754;6.978;2022-07-06T10:54:18;1.30;;;0.75;;
39524;SDS011;25203;50.754;6.978;2022-07-06T10:56:20;3.22;;;1.17;;
39524;SDS011;25203;50.754;6.978;2022-07-06T11:00:53;5.18;;;0.98;;
39524;SDS011;25203;50.754;6.978;2022-07-06T11:02:55;2.80;;;1.00;;
39524;SDS011;25203;50.754;6.978;2022-07-06T11:04:55;5.82;;;0.98;;
39524;SDS011;25203;50.754;6.978;2022-07-06T11:06:56;1.10;;;0.80;;
39524;SDS011;25203;50.754;6.978;2022-07-06T11:09:11;1.75;;;0.80;;
39524;SDS011;25203;50.754;6.978;2022-07-06T11:11:15;1.88;;;0.70;;
39524;SDS011;25203;50.754;6.978;2022-07-06T11:13:29;10.02;;;1.30;;
39524;SDS011;25203;50.754;6.978;2022-07-06T11:15:48;3.63;;;0.85;;
39524;SDS011;25203;50.754;6.978;2022-07-06T11:20:12;1.90;;;0.70;;
39524;SDS011;25203;50.754;6.978;2022-07-06T11:22:14;2.05;;;0.70;;
39524;SDS011;25203;50.754;6.978;2022-07-06T11:24:17;2.00;;;0.95;;
39524;SDS011;25203;50.754;6.978;2022-07-06T11:26:19;2.38;;;0.80;;
39524;SDS011;25203;50.754;6.978;2022-07-06T11:28:22;2.05;;;1.15;;
39524;SDS011;25203;50.754;6.978;2022-07-06T11:30:25;4.13;;;0.95;;
39524;SDS011;25203;50.754;6.978;2022-07-06T11:32:26;1.70;;;0.65;;
39524;SDS011;25203;50.754;6.978;2022-07-06T11:34:28;2.10;;;0.70;;
39524;SDS011;25203;50.754;6.978;2022-07-06T11:36:30;2.72;;;0.93;;
39524;SDS011;25203;50.754;6.978;2022-07-06T11:38:31;7.07;;;0.70;;
39524;SDS011;25203;50.754;6.978;2022-07-06T11:40:36;3.30;;;0.80;;
39524;SDS011;25203;50.754;6.978;2022-07-06T11:42:37;2.53;;;0.63;;
39524;SDS011;25203;50.754;6.978;2022-07-06T11:44:39;2.47;;;0.75;;
39524;SDS011;25203;50.754;6.978;2022-07-06T11:46:40;4.72;;;0.90;;
39524;SDS011;25203;50.754;6.978;2022-07-06T11:48:45;2.78;;;0.80;;
39524;SDS011;25203;50.754;6.978;2022-07-06T11:50:59;3.90;;;0.90;;
39524;SDS011;25203;50.754;6.978;2022-07-06T11:53:00;1.95;;;0.95;;
39524;SDS011;25203;50.754;6.978;2022-07-06T11:55:01;2.47;;;0.80;;
39524;SDS011;25203;50.754;6.978;2022-07-06T11:57:02;4.10;;;1.23;;
39524;SDS011;25203;50.754;6.978;2022-07-06T11:59:06;1.63;;;0.95;;
39524;SDS011;25203;50.754;6.978;2022-07-06T12:01:08;2.17;;;0.77;;
39524;SDS011;25203;50.754;6.978;2022-07-06T12:03:10;2.67;;;0.80;;
39524;SDS011;25203;50.754;6.978;2022-07-06T12:05:11;5.22;;;1.25;;
39524;SDS011;25203;50.754;6.978;2022-07-06T12:07:15;1.42;;;0.70;;
39524;SDS011;25203;50.754;6.978;2022-07-06T12:09:17;1.85;;;0.80;;
39524;SDS011;25203;50.754;6.978;2022-07-06T12:11:29;4.55;;;1.10;;
39524;SDS011;25203;50.754;6.978;2022-07-06T12:13:38;1.90;;;0.80;;
39524;SDS011;25203;50.754;6.978;2022-07-06T12:17:46;3.08;;;0.82;;
39524;SDS011;25203;50.754;6.978;2022-07-06T12:19:52;1.92;;;0.95;;
39524;SDS011;25203;50.754;6.978;2022-07-06T12:21:54;3.47;;;1.05;;
39524;SDS011;25203;50.754;6.978;2022-07-06T12:23:54;1.33;;;0.80;;